sensor_id;sensor_type;location;lat;lon;timestamp;temperature;humidity
44729;DHT22;30457;53.590;9.922;2023-10-19T00:01:39;12.20;52.80
44729;DHT22;30457;53.590;9.922;2023-10-19T00:06:05;12.30;52.90
44729;DHT22;30457;53.590;9.922;2023-10-19T00:10:31;12.30;52.90
44729;DHT22;30457;53.590;9.922;2023-10-19T00:15:00;12.30;53.00
44729;DHT22;30457;53.590;9.922;2023-10-19T00:19:29;12.30;53.10
44729;DHT22;30457;53.590;9.922;2023-10-19T00:23:57;12.30;53.10
44729;DHT22;30457;53.590;9.922;2023-10-19T00:28:23;12.30;53.20
44729;DHT22;30457;53.590;9.922;2023-10-19T00:32:50;12.30;53.10
44729;DHT22;30457;53.590;9.922;2023-10-19T00:37:19;12.30;53.20
44729;DHT22;30457;53.590;9.922;2023-10-19T00:41:51;12.30;53.20
44729;DHT22;30457;53.590;9.922;2023-10-19T00:46:22;12.30;53.20
44729;DHT22;30457;53.590;9.922;2023-10-19T00:50:53;12.30;53.20
44729;DHT22;30457;53.590;9.922;2023-10-19T00:55:32;12.30;53.20
44729;DHT22;30457;53.590;9.922;2023-10-19T00:59:59;12.30;53.20
44729;DHT22;30457;53.590;9.922;2023-10-19T01:04:36;12.30;53.20
44729;DHT22;30457;53.590;9.922;2023-10-19T01:09:05;12.30;53.20
44729;DHT22;30457;53.590;9.922;2023-10-19T01:13:31;12.30;53.20
44729;DHT22;30457;53.590;9.922;2023-10-19T01:18:00;12.30;53.20
44729;DHT22;30457;53.590;9.922;2023-10-19T01:22:26;12.40;53.20
44729;DHT22;30457;53.590;9.922;2023-10-19T01:26:52;12.40;53.10
44729;DHT22;30457;53.590;9.922;2023-10-19T01:31:20;12.40;53.10
44729;DHT22;30457;53.590;9.922;2023-10-19T01:35:55;12.40;53.10
44729;DHT22;30457;53.590;9.922;2023-10-19T01:40:36;12.30;53.20
44729;DHT22;30457;53.590;9.922;2023-10-19T01:45:11;12.30;53.20
44729;DHT22;30457;53.590;9.922;2023-10-19T01:49:36;12.30;53.10
44729;DHT22;30457;53.590;9.922;2023-10-19T01:54:02;12.30;53.10
44729;DHT22;30457;53.590;9.922;2023-10-19T01:58:28;12.40;53.60
44729;DHT22;30457;53.590;9.922;2023-10-19T02:02:53;12.30;53.10
44729;DHT22;30457;53.590;9.922;2023-10-19T02:07:19;12.40;53.20
44729;DHT22;30457;53.590;9.922;2023-10-19T02:11:46;12.30;53.20
44729;DHT22;30457;53.590;9.922;2023-10-19T02:16:13;12.40;53.20
44729;DHT22;30457;53.590;9.922;2023-10-19T02:20:41;12.40;53.20
44729;DHT22;30457;53.590;9.922;2023-10-19T02:25:06;12.30;53.10
44729;DHT22;30457;53.590;9.922;2023-10-19T02:29:34;12.40;53.20
44729;DHT22;30457;53.590;9.922;2023-10-19T02:34:01;12.40;53.10
44729;DHT22;30457;53.590;9.922;2023-10-19T02:38:27;12.40;53.10
44729;DHT22;30457;53.590;9.922;2023-10-19T02:42:52;12.40;53.10
44729;DHT22;30457;53.590;9.922;2023-10-19T02:47:19;12.40;53.10
44729;DHT22;30457;53.590;9.922;2023-10-19T02:51:45;12.40;53.10
44729;DHT22;30457;53.590;9.922;2023-10-19T02:56:15;12.40;53.00
44729;DHT22;30457;53.590;9.922;2023-10-19T03:00:44;12.40;52.90
44729;DHT22;30457;53.590;9.922;2023-10-19T03:05:11;12.40;53.40
44729;DHT22;30457;53.590;9.922;2023-10-19T03:09:40;12.40;52.90
44729;DHT22;30457;53.590;9.922;2023-10-19T03:14:13;12.40;52.90
44729;DHT22;30457;53.590;9.922;2023-10-19T03:18:39;12.40;52.90
44729;DHT22;30457;53.590;9.922;2023-10-19T03:23:04;12.50;52.80
44729;DHT22;30457;53.590;9.922;2023-10-19T03:27:30;12.50;52.90
44729;DHT22;30457;53.590;9.922;2023-10-19T03:31:56;12.50;52.90
44729;DHT22;30457;53.590;9.922;2023-10-19T03:36:23;12.50;53.00
44729;DHT22;30457;53.590;9.922;2023-10-19T03:40:49;12.50;53.30
44729;DHT22;30457;53.590;9.922;2023-10-19T03:45:17;12.50;53.60
44729;DHT22;30457;53.590;9.922;2023-10-19T03:49:47;12.50;54.00
44729;DHT22;30457;53.590;9.922;2023-10-19T03:54:14;12.50;54.00
44729;DHT22;30457;53.590;9.922;2023-10-19T03:58:49;12.40;54.10
44729;DHT22;30457;53.590;9.922;2023-10-19T04:03:16;12.30;53.80
44729;DHT22;30457;53.590;9.922;2023-10-19T04:07:50;12.30;53.60
44729;DHT22;30457;53.590;9.922;2023-10-19T04:12:17;12.20;54.40
44729;DHT22;30457;53.590;9.922;2023-10-19T04:16:43;12.20;54.80
44729;DHT22;30457;53.590;9.922;2023-10-19T04:21:09;12.10;55.20
44729;DHT22;30457;53.590;9.922;2023-10-19T04:25:34;12.00;55.50
44729;DHT22;30457;53.590;9.922;2023-10-19T04:30:00;11.90;55.60
44729;DHT22;30457;53.590;9.922;2023-10-19T04:34:25;11.90;55.80
44729;DHT22;30457;53.590;9.922;2023-10-19T04:38:51;11.90;56.00
44729;DHT22;30457;53.590;9.922;2023-10-19T04:43:17;11.90;56.00
44729;DHT22;30457;53.590;9.922;2023-10-19T04:47:43;11.90;56.30
44729;DHT22;30457;53.590;9.922;2023-10-19T04:52:09;11.80;56.40
44729;DHT22;30457;53.590;9.922;2023-10-19T04:56:34;11.80;56.40
44729;DHT22;30457;53.590;9.922;2023-10-19T05:01:01;11.80;56.40
44729;DHT22;30457;53.590;9.922;2023-10-19T05:05:29;11.80;56.50
44729;DHT22;30457;53.590;9.922;2023-10-19T05:09:54;11.70;56.60
44729;DHT22;30457;53.590;9.922;2023-10-19T05:14:20;11.70;56.70
44729;DHT22;30457;53.590;9.922;2023-10-19T05:18:45;11.70;56.80
44729;DHT22;30457;53.590;9.922;2023-10-19T05:23:11;11.70;56.70
44729;DHT22;30457;53.590;9.922;2023-10-19T05:27:39;11.70;56.80
44729;DHT22;30457;53.590;9.922;2023-10-19T05:32:04;11.60;57.10
44729;DHT22;30457;53.590;9.922;2023-10-19T05:36:30;11.60;57.20
44729;DHT22;30457;53.590;9.922;2023-10-19T05:40:58;11.50;57.20
44729;DHT22;30457;53.590;9.922;2023-10-19T05:45:24;11.50;57.30
44729;DHT22;30457;53.590;9.922;2023-10-19T05:49:52;11.50;57.60
44729;DHT22;30457;53.590;9.922;2023-10-19T05:54:17;11.50;57.50
44729;DHT22;30457;53.590;9.922;2023-10-19T05:58:43;11.50;57.50
44729;DHT22;30457;53.590;9.922;2023-10-19T06:03:11;11.50;57.70
44729;DHT22;30457;53.590;9.922;2023-10-19T06:07:37;11.50;57.80
44729;DHT22;30457;53.590;9.922;2023-10-19T06:12:02;11.50;57.70
44729;DHT22;30457;53.590;9.922;2023-10-19T06:16:29;11.50;57.90
44729;DHT22;30457;53.590;9.922;2023-10-19T06:20:55;11.50;58.10
44729;DHT22;30457;53.590;9.922;2023-10-19T06:25:22;11.40;58.10
44729;DHT22;30457;53.590;9.922;2023-10-19T06:29:47;11.40;58.10
44729;DHT22;30457;53.590;9.922;2023-10-19T06:34:15;11.40;58.50
44729;DHT22;30457;53.590;9.922;2023-10-19T06:38:42;11.40;58.60
44729;DHT22;30457;53.590;9.922;2023-10-19T06:43:08;11.40;58.60
44729;DHT22;30457;53.590;9.922;2023-10-19T06:47:34;11.40;58.50
44729;DHT22;30457;53.590;9.922;2023-10-19T06:52:03;11.40;58.70
44729;DHT22;30457;53.590;9.922;2023-10-19T06:56:30;11.40;58.70
44729;DHT22;30457;53.590;9.922;2023-10-19T07:00:58;11.40;58.70
44729;DHT22;30457;53.590;9.922;2023-10-19T07:05:30;11.40;58.70
44729;DHT22;30457;53.590;9.922;2023-10-19T07:09:58;11.40;58.60
44729;DHT22;30457;53.590;9.922;2023-10-19T07:14:24;11.40;58.80
44729;DHT22;30457;53.590;9.922;2023-10-19T07:18:49;11.40;58.80
44729;DHT22;30457;53.590;9.922;2023-10-19T07:23:15;11.50;58.90
44729;DHT22;30457;53.590;9.922;2023-10-19T07:27:44;11.50;59.00
44729;DHT22;30457;53.590;9.922;2023-10-19T07:32:09;11.50;59.10
44729;DHT22;30457;53.590;9.922;2023-10-19T07:36:38;11.50;59.00
44729;DHT22;30457;53.590;9.922;2023-10-19T07:41:04;11.50;59.00
44729;DHT22;30457;53.590;9.922;2023-10-19T07:45:31;11.50;59.00
44729;DHT22;30457;53.590;9.922;2023-10-19T07:49:57;11.60;58.90
44729;DHT22;30457;53.590;9.922;2023-10-19T07:54:23;11.60;59.00
44729;DHT22;30457;53.590;9.922;2023-10-19T07:58:48;11.60;58.80
44729;DHT22;30457;53.590;9.922;2023-10-19T08:03:14;11.60;58.90
44729;DHT22;30457;53.590;9.922;2023-10-19T08:07:41;11.60;59.00
44729;DHT22;30457;53.590;9.922;2023-10-19T08:12:12;11.60;59.00
44729;DHT22;30457;53.590;9.922;2023-10-19T08:16:39;11.60;59.20
44729;DHT22;30457;53.590;9.922;2023-10-19T08:21:04;11.60;59.10
44729;DHT22;30457;53.590;9.922;2023-10-19T08:25:30;11.70;59.20
44729;DHT22;30457;53.590;9.922;2023-10-19T08:29:55;11.60;59.20
44729;DHT22;30457;53.590;9.922;2023-10-19T08:34:21;11.70;59.90
44729;DHT22;30457;53.590;9.922;2023-10-19T08:38:47;11.70;59.50
44729;DHT22;30457;53.590;9.922;2023-10-19T08:43:13;11.70;59.40
44729;DHT22;30457;53.590;9.922;2023-10-19T08:48:00;11.70;59.40
44729;DHT22;30457;53.590;9.922;2023-10-19T08:52:27;11.70;59.60
44729;DHT22;30457;53.590;9.922;2023-10-19T08:56:53;11.70;59.30
44729;DHT22;30457;53.590;9.922;2023-10-19T09:01:21;11.70;59.50
44729;DHT22;30457;53.590;9.922;2023-10-19T09:05:46;11.70;59.50
44729;DHT22;30457;53.590;9.922;2023-10-19T09:10:16;11.70;59.50
44729;DHT22;30457;53.590;9.922;2023-10-19T09:14:41;11.70;60.20
44729;DHT22;30457;53.590;9.922;2023-10-19T09:19:08;11.70;59.80
44729;DHT22;30457;53.590;9.922;2023-10-19T09:23:35;11.70;59.90
44729;DHT22;30457;53.590;9.922;2023-10-19T09:28:01;11.70;60.00
44729;DHT22;30457;53.590;9.922;2023-10-19T09:32:30;11.80;59.80
44729;DHT22;30457;53.590;9.922;2023-10-19T09:37:02;11.80;59.70
44729;DHT22;30457;53.590;9.922;2023-10-19T09:41:29;11.80;60.00
44729;DHT22;30457;53.590;9.922;2023-10-19T09:45:57;11.80;59.80
44729;DHT22;30457;53.590;9.922;2023-10-19T09:50:25;11.80;59.60
44729;DHT22;30457;53.590;9.922;2023-10-19T09:55:24;11.80;59.80
44729;DHT22;30457;53.590;9.922;2023-10-19T09:59:58;11.80;60.00
44729;DHT22;30457;53.590;9.922;2023-10-19T10:04:37;11.80;59.80
44729;DHT22;30457;53.590;9.922;2023-10-19T10:09:02;11.80;59.70
44729;DHT22;30457;53.590;9.922;2023-10-19T10:17:57;11.70;59.60
44729;DHT22;30457;53.590;9.922;2023-10-19T10:22:26;11.80;59.70
44729;DHT22;30457;53.590;9.922;2023-10-19T10:26:59;11.80;59.70
44729;DHT22;30457;53.590;9.922;2023-10-19T10:31:28;11.80;60.00
44729;DHT22;30457;53.590;9.922;2023-10-19T10:35:54;11.80;59.80
44729;DHT22;30457;53.590;9.922;2023-10-19T10:40:20;11.80;60.10
44729;DHT22;30457;53.590;9.922;2023-10-19T10:44:47;11.80;60.10
44729;DHT22;30457;53.590;9.922;2023-10-19T10:49:15;11.80;60.00
44729;DHT22;30457;53.590;9.922;2023-10-19T10:53:41;11.80;60.00
44729;DHT22;30457;53.590;9.922;2023-10-19T10:58:07;11.80;60.10
44729;DHT22;30457;53.590;9.922;2023-10-19T11:02:35;11.80;60.20
44729;DHT22;30457;53.590;9.922;2023-10-19T11:07:01;11.90;60.50
44729;DHT22;30457;53.590;9.922;2023-10-19T11:11:26;11.90;60.10
44729;DHT22;30457;53.590;9.922;2023-10-19T11:15:54;11.90;60.20
44729;DHT22;30457;53.590;9.922;2023-10-19T11:20:23;11.90;60.30
44729;DHT22;30457;53.590;9.922;2023-10-19T11:24:48;11.90;60.00
44729;DHT22;30457;53.590;9.922;2023-10-19T11:29:16;11.90;60.10
44729;DHT22;30457;53.590;9.922;2023-10-19T11:33:43;11.90;60.30
44729;DHT22;30457;53.590;9.922;2023-10-19T11:38:09;11.90;60.30
44729;DHT22;30457;53.590;9.922;2023-10-19T11:42:34;11.90;60.10
44729;DHT22;30457;53.590;9.922;2023-10-19T11:47:00;11.90;60.20
44729;DHT22;30457;53.590;9.922;2023-10-19T11:51:26;12.00;60.40
44729;DHT22;30457;53.590;9.922;2023-10-19T11:55:52;11.90;60.30
44729;DHT22;30457;53.590;9.922;2023-10-19T12:00:17;12.00;60.30
44729;DHT22;30457;53.590;9.922;2023-10-19T12:04:58;12.00;60.40
44729;DHT22;30457;53.590;9.922;2023-10-19T12:09:24;12.00;60.30
44729;DHT22;30457;53.590;9.922;2023-10-19T12:13:50;12.00;60.30
44729;DHT22;30457;53.590;9.922;2023-10-19T12:18:15;11.90;60.30
44729;DHT22;30457;53.590;9.922;2023-10-19T12:22:41;11.90;60.50
44729;DHT22;30457;53.590;9.922;2023-10-19T12:27:07;11.90;60.50
44729;DHT22;30457;53.590;9.922;2023-10-19T12:31:33;12.00;60.40
44729;DHT22;30457;53.590;9.922;2023-10-19T12:35:59;12.00;60.30
44729;DHT22;30457;53.590;9.922;2023-10-19T12:40:24;12.00;60.30
44729;DHT22;30457;53.590;9.922;2023-10-19T12:44:54;12.00;60.30
44729;DHT22;30457;53.590;9.922;2023-10-19T12:49:20;12.00;60.40
44729;DHT22;30457;53.590;9.922;2023-10-19T12:53:54;12.00;60.50
44729;DHT22;30457;53.590;9.922;2023-10-19T12:58:20;12.10;60.80
44729;DHT22;30457;53.590;9.922;2023-10-19T13:02:46;12.10;60.50
44729;DHT22;30457;53.590;9.922;2023-10-19T13:07:11;12.10;60.50
44729;DHT22;30457;53.590;9.922;2023-10-19T13:11:38;12.10;60.50
44729;DHT22;30457;53.590;9.922;2023-10-19T13:16:04;12.10;60.50
44729;DHT22;30457;53.590;9.922;2023-10-19T13:20:34;12.10;60.70
44729;DHT22;30457;53.590;9.922;2023-10-19T13:25:00;12.10;60.50
44729;DHT22;30457;53.590;9.922;2023-10-19T13:29:25;12.20;60.30
44729;DHT22;30457;53.590;9.922;2023-10-19T13:33:53;12.20;60.40
44729;DHT22;30457;53.590;9.922;2023-10-19T13:38:19;12.20;60.30
44729;DHT22;30457;53.590;9.922;2023-10-19T13:42:45;12.20;60.20
44729;DHT22;30457;53.590;9.922;2023-10-19T13:47:12;12.20;60.10
44729;DHT22;30457;53.590;9.922;2023-10-19T13:51:37;12.20;60.40
44729;DHT22;30457;53.590;9.922;2023-10-19T13:56:10;12.20;60.50
44729;DHT22;30457;53.590;9.922;2023-10-19T14:00:36;12.20;60.60
44729;DHT22;30457;53.590;9.922;2023-10-19T14:05:05;12.30;60.60
44729;DHT22;30457;53.590;9.922;2023-10-19T14:09:30;12.30;60.30
44729;DHT22;30457;53.590;9.922;2023-10-19T14:13:57;12.30;60.20
44729;DHT22;30457;53.590;9.922;2023-10-19T14:18:22;12.40;60.30
44729;DHT22;30457;53.590;9.922;2023-10-19T14:22:52;12.40;60.10
44729;DHT22;30457;53.590;9.922;2023-10-19T14:27:20;12.40;60.20
44729;DHT22;30457;53.590;9.922;2023-10-19T14:31:46;12.40;60.00
44729;DHT22;30457;53.590;9.922;2023-10-19T14:36:11;12.40;60.00
44729;DHT22;30457;53.590;9.922;2023-10-19T14:40:37;12.40;60.10
44729;DHT22;30457;53.590;9.922;2023-10-19T14:45:08;12.40;60.10
44729;DHT22;30457;53.590;9.922;2023-10-19T14:49:36;12.40;60.10
44729;DHT22;30457;53.590;9.922;2023-10-19T14:54:02;12.50;60.00
44729;DHT22;30457;53.590;9.922;2023-10-19T14:58:28;12.50;59.80
44729;DHT22;30457;53.590;9.922;2023-10-19T15:02:56;12.50;59.70
44729;DHT22;30457;53.590;9.922;2023-10-19T15:07:22;12.50;59.70
44729;DHT22;30457;53.590;9.922;2023-10-19T15:11:48;12.50;59.70
44729;DHT22;30457;53.590;9.922;2023-10-19T15:16:14;12.50;59.60
44729;DHT22;30457;53.590;9.922;2023-10-19T15:20:39;12.50;59.50
44729;DHT22;30457;53.590;9.922;2023-10-19T15:25:05;12.50;59.60
44729;DHT22;30457;53.590;9.922;2023-10-19T15:29:34;12.50;59.60
44729;DHT22;30457;53.590;9.922;2023-10-19T15:33:59;12.50;59.70
44729;DHT22;30457;53.590;9.922;2023-10-19T15:38:25;12.50;59.80
44729;DHT22;30457;53.590;9.922;2023-10-19T15:42:50;12.50;59.90
44729;DHT22;30457;53.590;9.922;2023-10-19T15:47:18;12.50;60.00
44729;DHT22;30457;53.590;9.922;2023-10-19T15:51:45;12.50;60.00
44729;DHT22;30457;53.590;9.922;2023-10-19T15:56:10;12.40;60.10
44729;DHT22;30457;53.590;9.922;2023-10-19T16:00:37;12.40;60.10
44729;DHT22;30457;53.590;9.922;2023-10-19T16:05:04;12.40;60.20
44729;DHT22;30457;53.590;9.922;2023-10-19T16:09:30;12.40;60.40
44729;DHT22;30457;53.590;9.922;2023-10-19T16:13:55;12.40;60.40
44729;DHT22;30457;53.590;9.922;2023-10-19T16:18:21;12.40;60.50
44729;DHT22;30457;53.590;9.922;2023-10-19T16:22:47;12.40;60.50
44729;DHT22;30457;53.590;9.922;2023-10-19T16:27:12;12.40;60.50
44729;DHT22;30457;53.590;9.922;2023-10-19T16:31:38;12.40;60.60
44729;DHT22;30457;53.590;9.922;2023-10-19T16:36:04;12.30;60.60
44729;DHT22;30457;53.590;9.922;2023-10-19T16:40:29;12.30;60.50
44729;DHT22;30457;53.590;9.922;2023-10-19T16:44:55;12.30;60.80
44729;DHT22;30457;53.590;9.922;2023-10-19T16:49:22;12.30;60.80
44729;DHT22;30457;53.590;9.922;2023-10-19T16:53:47;12.30;61.20
44729;DHT22;30457;53.590;9.922;2023-10-19T16:58:13;12.30;61.30
44729;DHT22;30457;53.590;9.922;2023-10-19T17:02:40;12.30;61.30
44729;DHT22;30457;53.590;9.922;2023-10-19T17:07:06;12.30;61.40
44729;DHT22;30457;53.590;9.922;2023-10-19T17:11:31;12.30;61.40
44729;DHT22;30457;53.590;9.922;2023-10-19T17:15:58;12.30;61.50
44729;DHT22;30457;53.590;9.922;2023-10-19T17:20:26;12.20;61.60
44729;DHT22;30457;53.590;9.922;2023-10-19T17:24:52;12.20;61.60
44729;DHT22;30457;53.590;9.922;2023-10-19T17:29:18;12.20;61.90
44729;DHT22;30457;53.590;9.922;2023-10-19T17:33:45;12.30;61.70
44729;DHT22;30457;53.590;9.922;2023-10-19T17:38:10;12.30;61.80
44729;DHT22;30457;53.590;9.922;2023-10-19T17:42:37;12.30;61.80
44729;DHT22;30457;53.590;9.922;2023-10-19T17:47:03;12.30;61.80
44729;DHT22;30457;53.590;9.922;2023-10-19T17:51:28;12.30;61.70
44729;DHT22;30457;53.590;9.922;2023-10-19T17:55:54;12.30;61.70
44729;DHT22;30457;53.590;9.922;2023-10-19T18:00:22;12.30;61.80
44729;DHT22;30457;53.590;9.922;2023-10-19T18:04:47;12.30;61.50
44729;DHT22;30457;53.590;9.922;2023-10-19T18:09:18;12.30;61.60
44729;DHT22;30457;53.590;9.922;2023-10-19T18:13:44;12.30;61.60
44729;DHT22;30457;53.590;9.922;2023-10-19T18:18:09;12.30;61.70
44729;DHT22;30457;53.590;9.922;2023-10-19T18:22:35;12.30;61.70
44729;DHT22;30457;53.590;9.922;2023-10-19T18:27:03;12.30;61.70
44729;DHT22;30457;53.590;9.922;2023-10-19T18:31:29;12.20;61.70
44729;DHT22;30457;53.590;9.922;2023-10-19T18:35:59;12.20;61.90
44729;DHT22;30457;53.590;9.922;2023-10-19T18:40:25;12.20;62.00
44729;DHT22;30457;53.590;9.922;2023-10-19T18:44:55;12.20;61.90
44729;DHT22;30457;53.590;9.922;2023-10-19T18:49:20;12.20;62.10
44729;DHT22;30457;53.590;9.922;2023-10-19T18:53:46;12.10;62.00
44729;DHT22;30457;53.590;9.922;2023-10-19T18:58:12;12.10;62.20
44729;DHT22;30457;53.590;9.922;2023-10-19T19:02:37;12.10;62.30
44729;DHT22;30457;53.590;9.922;2023-10-19T19:07:04;12.10;62.50
44729;DHT22;30457;53.590;9.922;2023-10-19T19:11:29;12.10;62.50
44729;DHT22;30457;53.590;9.922;2023-10-19T19:15:55;12.00;62.60
44729;DHT22;30457;53.590;9.922;2023-10-19T19:20:24;12.00;62.70
44729;DHT22;30457;53.590;9.922;2023-10-19T19:24:50;12.00;63.20
44729;DHT22;30457;53.590;9.922;2023-10-19T19:29:15;12.00;63.00
44729;DHT22;30457;53.590;9.922;2023-10-19T19:33:44;12.00;62.90
44729;DHT22;30457;53.590;9.922;2023-10-19T19:38:10;12.00;63.00
44729;DHT22;30457;53.590;9.922;2023-10-19T19:42:38;12.00;62.80
44729;DHT22;30457;53.590;9.922;2023-10-19T19:47:03;12.00;62.80
44729;DHT22;30457;53.590;9.922;2023-10-19T19:51:29;12.00;63.00
44729;DHT22;30457;53.590;9.922;2023-10-19T19:55:58;12.00;63.00
44729;DHT22;30457;53.590;9.922;2023-10-19T20:00:25;12.00;63.00
44729;DHT22;30457;53.590;9.922;2023-10-19T20:04:51;12.00;63.00
44729;DHT22;30457;53.590;9.922;2023-10-19T20:09:17;12.00;63.00
44729;DHT22;30457;53.590;9.922;2023-10-19T20:13:42;12.00;63.00
44729;DHT22;30457;53.590;9.922;2023-10-19T20:18:09;11.90;63.10
44729;DHT22;30457;53.590;9.922;2023-10-19T20:22:36;11.90;63.00
44729;DHT22;30457;53.590;9.922;2023-10-19T20:27:01;11.90;63.20
44729;DHT22;30457;53.590;9.922;2023-10-19T20:31:27;11.90;63.10
44729;DHT22;30457;53.590;9.922;2023-10-19T20:35:54;11.90;63.20
44729;DHT22;30457;53.590;9.922;2023-10-19T20:40:20;11.90;63.00
44729;DHT22;30457;53.590;9.922;2023-10-19T20:44:49;11.90;63.00
44729;DHT22;30457;53.590;9.922;2023-10-19T20:49:14;11.90;63.00
44729;DHT22;30457;53.590;9.922;2023-10-19T20:53:41;11.90;63.00
44729;DHT22;30457;53.590;9.922;2023-10-19T20:58:08;11.90;62.90
44729;DHT22;30457;53.590;9.922;2023-10-19T21:02:35;11.90;63.00
44729;DHT22;30457;53.590;9.922;2023-10-19T21:07:00;11.90;62.90
44729;DHT22;30457;53.590;9.922;2023-10-19T21:11:26;11.90;62.80
44729;DHT22;30457;53.590;9.922;2023-10-19T21:15:53;11.90;63.00
44729;DHT22;30457;53.590;9.922;2023-10-19T21:20:19;11.80;63.20
44729;DHT22;30457;53.590;9.922;2023-10-19T21:24:44;11.80;63.20
44729;DHT22;30457;53.590;9.922;2023-10-19T21:29:10;11.80;63.20
44729;DHT22;30457;53.590;9.922;2023-10-19T21:33:36;11.80;63.10
44729;DHT22;30457;53.590;9.922;2023-10-19T21:38:02;11.80;63.20
44729;DHT22;30457;53.590;9.922;2023-10-19T21:42:28;11.80;63.30
44729;DHT22;30457;53.590;9.922;2023-10-19T21:46:53;11.80;63.40
44729;DHT22;30457;53.590;9.922;2023-10-19T21:51:20;11.80;63.40
44729;DHT22;30457;53.590;9.922;2023-10-19T21:55:45;11.80;63.50
44729;DHT22;30457;53.590;9.922;2023-10-19T22:00:11;11.80;63.50
44729;DHT22;30457;53.590;9.922;2023-10-19T22:04:49;11.80;63.50
44729;DHT22;30457;53.590;9.922;2023-10-19T22:09:15;11.80;63.40
44729;DHT22;30457;53.590;9.922;2023-10-19T22:13:41;11.80;63.40
44729;DHT22;30457;53.590;9.922;2023-10-19T22:18:08;11.80;63.50
44729;DHT22;30457;53.590;9.922;2023-10-19T22:22:34;11.80;63.40
44729;DHT22;30457;53.590;9.922;2023-10-19T22:27:01;11.80;63.40
44729;DHT22;30457;53.590;9.922;2023-10-19T22:31:27;11.80;63.50
44729;DHT22;30457;53.590;9.922;2023-10-19T22:35:53;11.70;63.50
44729;DHT22;30457;53.590;9.922;2023-10-19T22:40:19;11.70;63.70
44729;DHT22;30457;53.590;9.922;2023-10-19T22:44:45;11.80;63.90
44729;DHT22;30457;53.590;9.922;2023-10-19T22:49:10;11.80;63.70
44729;DHT22;30457;53.590;9.922;2023-10-19T22:53:39;11.80;63.50
44729;DHT22;30457;53.590;9.922;2023-10-19T22:58:06;11.80;63.40
44729;DHT22;30457;53.590;9.922;2023-10-19T23:02:32;11.80;63.50
44729;DHT22;30457;53.590;9.922;2023-10-19T23:06:57;11.90;63.50
44729;DHT22;30457;53.590;9.922;2023-10-19T23:11:23;11.90;63.50
44729;DHT22;30457;53.590;9.922;2023-10-19T23:15:52;11.90;63.40
44729;DHT22;30457;53.590;9.922;2023-10-19T23:20:20;11.90;63.60
44729;DHT22;30457;53.590;9.922;2023-10-19T23:24:46;11.80;63.70
44729;DHT22;30457;53.590;9.922;2023-10-19T23:29:15;11.90;63.90
44729;DHT22;30457;53.590;9.922;2023-10-19T23:33:43;11.90;63.70
44729;DHT22;30457;53.590;9.922;2023-10-19T23:38:08;11.90;63.70
44729;DHT22;30457;53.590;9.922;2023-10-19T23:42:34;11.90;63.70
44729;DHT22;30457;53.590;9.922;2023-10-19T23:47:00;11.90;63.70
44729;DHT22;30457;53.590;9.922;2023-10-19T23:51:25;11.90;63.60
44729;DHT22;30457;53.590;9.922;2023-10-19T23:55:53;12.00;63.50
